sensor_id;sensor_type;location;lat;lon;timestamp;pressure;altitude;pressure_sealevel;temperature;humidity
34124;BME280;13153;52.316;21.166;2022-12-18T00:01:31;101729.66;;;-0.19;59.73
34124;BME280;13153;52.316;21.166;2022-12-18T00:03:59;101737.41;;;-0.19;59.88
34124;BME280;13153;52.316;21.166;2022-12-18T00:06:28;101746.97;;;-0.18;59.69
34124;BME280;13153;52.316;21.166;2022-12-18T00:08:57;101749.56;;;-0.18;59.78
34124;BME280;13153;52.316;21.166;2022-12-18T00:11:26;101743.63;;;-0.17;59.75
34124;BME280;13153;52.316;21.166;2022-12-18T00:13:56;101750.63;;;-0.16;60.10
34124;BME280;13153;52.316;21.166;2022-12-18T00:16:24;101749.22;;;-0.12;59.95
34124;BME280;13153;52.316;21.166;2022-12-18T00:18:56;101749.63;;;-0.08;60.04
34124;BME280;13153;52.316;21.166;2022-12-18T00:21:22;101755.56;;;-0.09;59.81
34124;BME280;13153;52.316;21.166;2022-12-18T00:23:49;101757.41;;;-0.08;59.93
34124;BME280;13153;52.316;21.166;2022-12-18T00:26:28;101769.56;;;-0.07;59.64
34124;BME280;13153;52.316;21.166;2022-12-18T00:29:02;101765.03;;;-0.09;59.54
34124;BME280;13153;52.316;21.166;2022-12-18T00:31:29;101768.22;;;-0.12;59.38
34124;BME280;13153;52.316;21.166;2022-12-18T00:33:56;101775.09;;;-0.12;59.38
34124;BME280;13153;52.316;21.166;2022-12-18T00:36:26;101774.94;;;-0.14;59.43
34124;BME280;13153;52.316;21.166;2022-12-18T00:38:54;101780.13;;;-0.14;59.43
34124;BME280;13153;52.316;21.166;2022-12-18T00:41:21;101779.50;;;-0.11;59.73
34124;BME280;13153;52.316;21.166;2022-12-18T00:44:08;101784.25;;;-0.16;59.44
34124;BME280;13153;52.316;21.166;2022-12-18T00:46:35;101793.81;;;-0.15;59.64
34124;BME280;13153;52.316;21.166;2022-12-18T00:49:01;101784.53;;;-0.13;59.75
34124;BME280;13153;52.316;21.166;2022-12-18T00:51:28;101783.13;;;-0.09;59.83
34124;BME280;13153;52.316;21.166;2022-12-18T00:53:53;101785.84;;;-0.08;59.75
34124;BME280;13153;52.316;21.166;2022-12-18T00:56:19;101793.75;;;-0.06;59.61
34124;BME280;13153;52.316;21.166;2022-12-18T00:58:45;101793.88;;;-0.05;59.49
34124;BME280;13153;52.316;21.166;2022-12-18T01:01:10;101800.88;;;-0.04;59.52
34124;BME280;13153;52.316;21.166;2022-12-18T01:03:36;101805.28;;;-0.03;59.69
34124;BME280;13153;52.316;21.166;2022-12-18T01:06:07;101806.34;;;-0.01;59.80
34124;BME280;13153;52.316;21.166;2022-12-18T01:08:34;101815.13;;;0.02;59.76
34124;BME280;13153;52.316;21.166;2022-12-18T01:11:07;101817.97;;;0.05;59.36
34124;BME280;13153;52.316;21.166;2022-12-18T01:13:33;101814.34;;;0.03;59.63
34124;BME280;13153;52.316;21.166;2022-12-18T01:15:59;101814.34;;;0.03;59.45
34124;BME280;13153;52.316;21.166;2022-12-18T01:18:25;101817.69;;;0.02;59.53
34124;BME280;13153;52.316;21.166;2022-12-18T01:20:51;101815.25;;;0.03;59.54
34124;BME280;13153;52.316;21.166;2022-12-18T01:23:17;101820.56;;;0.05;59.63
34124;BME280;13153;52.316;21.166;2022-12-18T01:25:42;101817.97;;;0.05;59.55
34124;BME280;13153;52.316;21.166;2022-12-18T01:28:08;101823.16;;;0.05;59.47
34124;BME280;13153;52.316;21.166;2022-12-18T01:30:34;101831.81;;;0.05;59.79
34124;BME280;13153;52.316;21.166;2022-12-18T01:32:59;101823.16;;;0.05;59.46
34124;BME280;13153;52.316;21.166;2022-12-18T01:35:25;101837.91;;;0.06;59.51
34124;BME280;13153;52.316;21.166;2022-12-18T01:37:54;101827.06;;;0.10;59.80
34124;BME280;13153;52.316;21.166;2022-12-18T01:40:20;101837.28;;;0.08;59.42
34124;BME280;13153;52.316;21.166;2022-12-18T01:42:54;101851.91;;;0.08;59.54
34124;BME280;13153;52.316;21.166;2022-12-18T01:45:27;101853.84;;;0.10;59.48
34124;BME280;13153;52.316;21.166;2022-12-18T01:48:02;101856.59;;;0.12;59.65
34124;BME280;13153;52.316;21.166;2022-12-18T01:50:32;101859.94;;;0.11;59.71
34124;BME280;13153;52.316;21.166;2022-12-18T01:53:14;101866.16;;;0.13;59.86
34124;BME280;13153;52.316;21.166;2022-12-18T01:55:51;101867.84;;;0.12;59.86
34124;BME280;13153;52.316;21.166;2022-12-18T01:58:18;101868.00;;;0.14;59.69
34124;BME280;13153;52.316;21.166;2022-12-18T02:00:45;101879.25;;;0.14;59.71
34124;BME280;13153;52.316;21.166;2022-12-18T02:03:11;101876.66;;;0.14;59.62
34124;BME280;13153;52.316;21.166;2022-12-18T02:05:52;101881.97;;;0.16;59.95
34124;BME280;13153;52.316;21.166;2022-12-18T02:08:55;101884.72;;;0.17;59.80
34124;BME280;13153;52.316;21.166;2022-12-18T02:17:16;101889.88;;;0.17;59.67
34124;BME280;13153;52.316;21.166;2022-12-18T02:20:19;101892.59;;;0.19;59.79
34124;BME280;13153;52.316;21.166;2022-12-18T02:26:22;101901.44;;;0.21;59.66
34124;BME280;13153;52.316;21.166;2022-12-18T02:28:56;101900.50;;;0.20;59.86
34124;BME280;13153;52.316;21.166;2022-12-18T02:31:28;101907.38;;;0.20;59.78
34124;BME280;13153;52.316;21.166;2022-12-18T02:33:59;101911.50;;;0.18;59.75
34124;BME280;13153;52.316;21.166;2022-12-18T02:36:28;101909.41;;;0.14;59.58
34124;BME280;13153;52.316;21.166;2022-12-18T02:38:57;101911.50;;;0.18;59.70
34124;BME280;13153;52.316;21.166;2022-12-18T02:41:25;101915.00;;;0.18;59.68
34124;BME280;13153;52.316;21.166;2022-12-18T02:44:02;101912.53;;;0.20;59.45
34124;BME280;13153;52.316;21.166;2022-12-18T02:46:40;101924.72;;;0.21;59.59
34124;BME280;13153;52.316;21.166;2022-12-18T02:52:39;101938.63;;;0.13;59.21
34124;BME280;13153;52.316;21.166;2022-12-18T02:55:51;101942.91;;;0.12;59.13
34124;BME280;13153;52.316;21.166;2022-12-18T02:58:52;101949.47;;;0.09;59.44
34124;BME280;13153;52.316;21.166;2022-12-18T03:04:31;101955.69;;;0.11;59.23
34124;BME280;13153;52.316;21.166;2022-12-18T03:07:05;101962.69;;;0.12;59.09
34124;BME280;13153;52.316;21.166;2022-12-18T03:09:38;101963.16;;;0.08;58.84
34124;BME280;13153;52.316;21.166;2022-12-18T03:12:18;101974.44;;;0.08;58.84
34124;BME280;13153;52.316;21.166;2022-12-18T03:15:04;101976.72;;;0.05;58.51
34124;BME280;13153;52.316;21.166;2022-12-18T03:17:35;101985.25;;;0.04;59.33
34124;BME280;13153;52.316;21.166;2022-12-18T03:20:15;101983.56;;;0.05;58.99
34124;BME280;13153;52.316;21.166;2022-12-18T03:22:47;101985.41;;;0.06;58.86
34124;BME280;13153;52.316;21.166;2022-12-18T03:25:17;101989.53;;;0.04;58.42
34124;BME280;13153;52.316;21.166;2022-12-18T03:27:49;101987.44;;;-0.01;57.92
34124;BME280;13153;52.316;21.166;2022-12-18T03:30:18;101991.28;;;-0.06;57.74
34124;BME280;13153;52.316;21.166;2022-12-18T03:35:37;101989.47;;;-0.07;58.26
34124;BME280;13153;52.316;21.166;2022-12-18T03:38:05;101995.41;;;-0.08;58.00
34124;BME280;13153;52.316;21.166;2022-12-18T03:41:19;102005.59;;;-0.09;58.14
34124;BME280;13153;52.316;21.166;2022-12-18T03:49:56;102024.94;;;-0.14;58.41
34124;BME280;13153;52.316;21.166;2022-12-18T03:53:00;102026.91;;;-0.12;58.20
34124;BME280;13153;52.316;21.166;2022-12-18T03:55:32;102024.19;;;-0.13;58.21
34124;BME280;13153;52.316;21.166;2022-12-18T03:58:03;102026.91;;;-0.12;58.24
34124;BME280;13153;52.316;21.166;2022-12-18T04:00:31;102027.38;;;-0.16;57.92
34124;BME280;13153;52.316;21.166;2022-12-18T04:03:00;102027.25;;;-0.17;58.17
34124;BME280;13153;52.316;21.166;2022-12-18T04:05:30;102030.59;;;-0.18;57.60
34124;BME280;13153;52.316;21.166;2022-12-18T04:07:58;102028.00;;;-0.18;58.07
34124;BME280;13153;52.316;21.166;2022-12-18T04:10:24;102037.28;;;-0.20;57.75
34124;BME280;13153;52.316;21.166;2022-12-18T04:12:50;102045.66;;;-0.23;58.14
34124;BME280;13153;52.316;21.166;2022-12-18T04:15:15;102037.00;;;-0.23;57.84
34124;BME280;13153;52.316;21.166;2022-12-18T04:17:48;102037.91;;;-0.23;58.19
34124;BME280;13153;52.316;21.166;2022-12-18T04:20:15;102039.44;;;-0.25;57.99
34124;BME280;13153;52.316;21.166;2022-12-18T04:22:41;102048.41;;;-0.21;58.48
34124;BME280;13153;52.316;21.166;2022-12-18T04:25:08;102046.72;;;-0.21;58.23
34124;BME280;13153;52.316;21.166;2022-12-18T04:27:34;102055.25;;;-0.22;57.99
34124;BME280;13153;52.316;21.166;2022-12-18T04:30:00;102069.84;;;-0.22;58.13
34124;BME280;13153;52.316;21.166;2022-12-18T04:32:26;102063.81;;;-0.31;58.03
34124;BME280;13153;52.316;21.166;2022-12-18T04:34:52;102076.72;;;-0.31;57.93
34124;BME280;13153;52.316;21.166;2022-12-18T04:37:18;102081.75;;;-0.33;57.86
34124;BME280;13153;52.316;21.166;2022-12-18T04:39:43;102085.25;;;-0.32;57.93
34124;BME280;13153;52.316;21.166;2022-12-18T04:42:09;102092.72;;;-0.36;57.41
34124;BME280;13153;52.316;21.166;2022-12-18T04:44:36;102096.97;;;-0.36;57.51
34124;BME280;13153;52.316;21.166;2022-12-18T04:47:02;102097.91;;;-0.44;57.48
34124;BME280;13153;52.316;21.166;2022-12-18T04:49:27;102102.75;;;-0.47;57.52
34124;BME280;13153;52.316;21.166;2022-12-18T04:51:53;102100.94;;;-0.48;57.85
34124;BME280;13153;52.316;21.166;2022-12-18T04:54:19;102108.25;;;-0.44;57.85
34124;BME280;13153;52.316;21.166;2022-12-18T04:56:45;102107.47;;;-0.43;57.42
34124;BME280;13153;52.316;21.166;2022-12-18T04:59:11;102105.94;;;-0.41;58.05
34124;BME280;13153;52.316;21.166;2022-12-18T05:01:36;102121.47;;;-0.41;57.79
34124;BME280;13153;52.316;21.166;2022-12-18T05:04:03;102115.69;;;-0.39;57.78
34124;BME280;13153;52.316;21.166;2022-12-18T05:06:29;102121.63;;;-0.40;57.61
34124;BME280;13153;52.316;21.166;2022-12-18T05:08:55;102116.28;;;-0.41;57.73
34124;BME280;13153;52.316;21.166;2022-12-18T05:11:21;102120.72;;;-0.40;57.79
34124;BME280;13153;52.316;21.166;2022-12-18T05:13:46;102132.09;;;-0.38;57.83
34124;BME280;13153;52.316;21.166;2022-12-18T05:16:13;102129.53;;;-0.38;57.03
34124;BME280;13153;52.316;21.166;2022-12-18T05:18:40;102140.34;;;-0.42;57.57
34124;BME280;13153;52.316;21.166;2022-12-18T05:21:06;102138.66;;;-0.42;57.54
34124;BME280;13153;52.316;21.166;2022-12-18T05:23:32;102137.44;;;-0.45;57.38
34124;BME280;13153;52.316;21.166;2022-12-18T05:26:03;102143.53;;;-0.45;57.60
34124;BME280;13153;52.316;21.166;2022-12-18T05:28:32;102151.13;;;-0.46;57.22
34124;BME280;13153;52.316;21.166;2022-12-18T05:31:01;102159.50;;;-0.49;57.56
34124;BME280;13153;52.316;21.166;2022-12-18T05:33:32;102151.59;;;-0.50;57.73
34124;BME280;13153;52.316;21.166;2022-12-18T05:36:00;102169.69;;;-0.50;57.56
34124;BME280;13153;52.316;21.166;2022-12-18T05:38:47;102167.09;;;-0.50;57.89
34124;BME280;13153;52.316;21.166;2022-12-18T05:41:12;102170.00;;;-0.47;57.89
34124;BME280;13153;52.316;21.166;2022-12-18T05:43:40;102173.50;;;-0.47;58.19
34124;BME280;13153;52.316;21.166;2022-12-18T05:46:11;102174.56;;;-0.45;57.73
34124;BME280;13153;52.316;21.166;2022-12-18T05:48:37;102180.78;;;-0.43;57.94
34124;BME280;13153;52.316;21.166;2022-12-18T05:51:11;102186.88;;;-0.42;57.53
34124;BME280;13153;52.316;21.166;2022-12-18T05:53:37;102189.16;;;-0.45;57.80
34124;BME280;13153;52.316;21.166;2022-12-18T05:56:22;102197.53;;;-0.48;57.61
34124;BME280;13153;52.316;21.166;2022-12-18T05:58:52;102196.16;;;-0.53;57.66
34124;BME280;13153;52.316;21.166;2022-12-18T06:01:23;102194.00;;;-0.57;57.51
34124;BME280;13153;52.316;21.166;2022-12-18T06:03:50;102202.41;;;-0.59;57.61
34124;BME280;13153;52.316;21.166;2022-12-18T06:06:22;102203.94;;;-0.61;57.78
34124;BME280;13153;52.316;21.166;2022-12-18T06:08:49;102193.28;;;-0.64;57.73
34124;BME280;13153;52.316;21.166;2022-12-18T06:11:25;102203.16;;;-0.60;58.11
34124;BME280;13153;52.316;21.166;2022-12-18T06:13:56;102203.31;;;-0.59;58.01
34124;BME280;13153;52.316;21.166;2022-12-18T06:16:21;102203.44;;;-0.57;57.83
34124;BME280;13153;52.316;21.166;2022-12-18T06:18:47;102207.84;;;-0.56;57.91
34124;BME280;13153;52.316;21.166;2022-12-18T06:21:13;102212.75;;;-0.59;57.84
34124;BME280;13153;52.316;21.166;2022-12-18T06:23:39;102220.19;;;-0.62;58.16
34124;BME280;13153;52.316;21.166;2022-12-18T06:26:10;102223.53;;;-0.63;58.00
34124;BME280;13153;52.316;21.166;2022-12-18T06:28:37;102228.72;;;-0.63;57.92
34124;BME280;13153;52.316;21.166;2022-12-18T06:31:04;102245.75;;;-0.65;58.06
34124;BME280;13153;52.316;21.166;2022-12-18T06:33:31;102235.56;;;-0.64;58.00
34124;BME280;13153;52.316;21.166;2022-12-18T06:36:07;102245.13;;;-0.63;58.03
34124;BME280;13153;52.316;21.166;2022-12-18T06:38:34;102246.97;;;-0.62;58.00
34124;BME280;13153;52.316;21.166;2022-12-18T06:41:09;102256.22;;;-0.55;58.61
34124;BME280;13153;52.316;21.166;2022-12-18T06:43:35;102255.31;;;-0.56;57.99
34124;BME280;13153;52.316;21.166;2022-12-18T06:46:03;102265.97;;;-0.61;58.20
34124;BME280;13153;52.316;21.166;2022-12-18T06:48:30;102276.91;;;-0.64;58.14
34124;BME280;13153;52.316;21.166;2022-12-18T06:50:56;102278.28;;;-0.59;58.24
34124;BME280;13153;52.316;21.166;2022-12-18T06:53:22;102280.09;;;-0.49;58.63
34124;BME280;13153;52.316;21.166;2022-12-18T06:55:48;102277.06;;;-0.45;57.85
34124;BME280;13153;52.316;21.166;2022-12-18T06:58:14;102283.16;;;-0.45;57.92
34124;BME280;13153;52.316;21.166;2022-12-18T07:00:40;102280.25;;;-0.48;58.19
34124;BME280;13153;52.316;21.166;2022-12-18T07:03:06;102297.44;;;-0.48;58.07
34124;BME280;13153;52.316;21.166;2022-12-18T07:05:32;102298.97;;;-0.50;58.00
34124;BME280;13153;52.316;21.166;2022-12-18T07:07:58;102302.31;;;-0.51;58.09
34124;BME280;13153;52.316;21.166;2022-12-18T07:10:24;102305.66;;;-0.52;57.61
34124;BME280;13153;52.316;21.166;2022-12-18T07:12:50;102309.00;;;-0.53;58.12
34124;BME280;13153;52.316;21.166;2022-12-18T07:15:16;102315.69;;;-0.55;58.27
34124;BME280;13153;52.316;21.166;2022-12-18T07:17:42;102317.50;;;-0.54;58.31
34124;BME280;13153;52.316;21.166;2022-12-18T07:20:08;102322.38;;;-0.57;58.04
34124;BME280;13153;52.316;21.166;2022-12-18T07:22:34;102324.34;;;-0.55;57.97
34124;BME280;13153;52.316;21.166;2022-12-18T07:25:00;102322.69;;;-0.54;58.14
34124;BME280;13153;52.316;21.166;2022-12-18T07:27:26;102336.69;;;-0.61;58.04
34124;BME280;13153;52.316;21.166;2022-12-18T07:29:52;102336.38;;;-0.64;58.17
34124;BME280;13153;52.316;21.166;2022-12-18T07:32:17;102337.28;;;-0.63;58.22
34124;BME280;13153;52.316;21.166;2022-12-18T07:34:43;102340.63;;;-0.64;58.07
34124;BME280;13153;52.316;21.166;2022-12-18T07:37:09;102341.69;;;-0.62;58.18
34124;BME280;13153;52.316;21.166;2022-12-18T07:39:35;102343.03;;;-0.57;58.05
34124;BME280;13153;52.316;21.166;2022-12-18T07:42:00;102338.81;;;-0.48;58.74
34124;BME280;13153;52.316;21.166;2022-12-18T07:44:45;102338.22;;;-0.46;57.68
34124;BME280;13153;52.316;21.166;2022-12-18T07:47:11;102352.06;;;-0.45;58.02
34124;BME280;13153;52.316;21.166;2022-12-18T07:49:37;102354.03;;;-0.43;57.98
34124;BME280;13153;52.316;21.166;2022-12-18T07:52:03;102357.84;;;-0.39;58.40
34124;BME280;13153;52.316;21.166;2022-12-18T07:54:29;102360.00;;;-0.35;57.62
34124;BME280;13153;52.316;21.166;2022-12-18T07:56:55;102366.06;;;-0.35;57.94
34124;BME280;13153;52.316;21.166;2022-12-18T07:59:20;102374.31;;;-0.30;57.70
34124;BME280;13153;52.316;21.166;2022-12-18T08:01:46;102384.19;;;-0.26;57.53
34124;BME280;13153;52.316;21.166;2022-12-18T08:04:12;102388.63;;;-0.25;57.50
34124;BME280;13153;52.316;21.166;2022-12-18T08:06:38;102389.53;;;-0.24;57.42
34124;BME280;13153;52.316;21.166;2022-12-18T08:09:03;102396.84;;;-0.20;56.99
34124;BME280;13153;52.316;21.166;2022-12-18T08:11:29;102395.78;;;-0.22;57.68
34124;BME280;13153;52.316;21.166;2022-12-18T08:13:56;102387.84;;;-0.24;56.91
34124;BME280;13153;52.316;21.166;2022-12-18T08:16:22;102393.34;;;-0.21;57.48
34124;BME280;13153;52.316;21.166;2022-12-18T08:18:48;102395.16;;;-0.20;57.14
34124;BME280;13153;52.316;21.166;2022-12-18T08:21:19;102392.28;;;-0.23;57.09
34124;BME280;13153;52.316;21.166;2022-12-18T08:23:46;102391.66;;;-0.20;57.27
34124;BME280;13153;52.316;21.166;2022-12-18T08:26:13;102401.72;;;-0.15;57.52
34124;BME280;13153;52.316;21.166;2022-12-18T08:28:40;102399.44;;;-0.12;57.19
34124;BME280;13153;52.316;21.166;2022-12-18T08:31:07;102411.63;;;-0.11;57.58
34124;BME280;13153;52.316;21.166;2022-12-18T08:33:34;102414.53;;;-0.08;57.73
34124;BME280;13153;52.316;21.166;2022-12-18T08:36:01;102414.84;;;-0.05;57.69
34124;BME280;13153;52.316;21.166;2022-12-18T08:38:27;102420.31;;;-0.02;57.53
34124;BME280;13153;52.316;21.166;2022-12-18T08:41:05;102424.09;;;0.11;57.73
34124;BME280;13153;52.316;21.166;2022-12-18T08:43:32;102438.16;;;0.30;57.56
34124;BME280;13153;52.316;21.166;2022-12-18T08:46:21;102433.59;;;0.45;57.02
34124;BME280;13153;52.316;21.166;2022-12-18T08:48:47;102426.28;;;0.49;56.66
34124;BME280;13153;52.316;21.166;2022-12-18T08:51:16;102436.34;;;0.46;56.35
34124;BME280;13153;52.316;21.166;2022-12-18T08:53:43;102441.19;;;0.43;56.63
34124;BME280;13153;52.316;21.166;2022-12-18T08:56:10;102439.53;;;0.44;56.46
34124;BME280;13153;52.316;21.166;2022-12-18T08:58:36;102437.53;;;0.41;56.80
34124;BME280;13153;52.316;21.166;2022-12-18T09:01:05;102447.75;;;0.40;56.91
34124;BME280;13153;52.316;21.166;2022-12-18T09:03:31;102447.59;;;0.38;57.05
34124;BME280;13153;52.316;21.166;2022-12-18T09:05:58;102450.34;;;0.31;57.49
34124;BME280;13153;52.316;21.166;2022-12-18T09:08:25;102454.16;;;0.35;57.72
34124;BME280;13153;52.316;21.166;2022-12-18T09:10:51;102454.00;;;0.42;58.05
34124;BME280;13153;52.316;21.166;2022-12-18T09:13:17;102456.44;;;0.49;57.91
34124;BME280;13153;52.316;21.166;2022-12-18T09:15:47;102456.59;;;0.50;58.19
34124;BME280;13153;52.316;21.166;2022-12-18T09:18:15;102458.41;;;0.51;57.88
34124;BME280;13153;52.316;21.166;2022-12-18T09:20:41;102463.16;;;0.55;58.29
34124;BME280;13153;52.316;21.166;2022-12-18T09:23:08;102447.88;;;0.58;58.21
34124;BME280;13153;52.316;21.166;2022-12-18T09:25:35;102454.13;;;0.60;58.32
34124;BME280;13153;52.316;21.166;2022-12-18T09:28:17;102453.34;;;0.61;57.92
34124;BME280;13153;52.316;21.166;2022-12-18T09:30:48;102459.75;;;0.65;58.37
34124;BME280;13153;52.316;21.166;2022-12-18T09:33:15;102451.06;;;0.64;57.97
34124;BME280;13153;52.316;21.166;2022-12-18T09:35:43;102457.31;;;0.66;57.86
34124;BME280;13153;52.316;21.166;2022-12-18T09:38:19;102456.72;;;0.69;58.52
34124;BME280;13153;52.316;21.166;2022-12-18T09:40:56;102459.75;;;0.74;58.74
34124;BME280;13153;52.316;21.166;2022-12-18T09:43:42;102461.88;;;0.86;59.13
34124;BME280;13153;52.316;21.166;2022-12-18T09:46:32;102464.63;;;0.88;58.71
34124;BME280;13153;52.316;21.166;2022-12-18T09:49:05;102465.53;;;0.88;58.71
34124;BME280;13153;52.316;21.166;2022-12-18T09:54:19;102468.13;;;0.97;58.17
34124;BME280;13153;52.316;21.166;2022-12-18T09:56:47;102474.66;;;1.02;58.19
34124;BME280;13153;52.316;21.166;2022-12-18T09:59:38;102475.41;;;1.10;58.19
34124;BME280;13153;52.316;21.166;2022-12-18T10:02:34;102478.94;;;1.10;57.95
34124;BME280;13153;52.316;21.166;2022-12-18T10:05:13;102481.06;;;1.14;58.47
34124;BME280;13153;52.316;21.166;2022-12-18T10:08:16;102471.59;;;1.15;57.77
34124;BME280;13153;52.316;21.166;2022-12-18T10:10:53;102469.28;;;1.18;58.06
34124;BME280;13153;52.316;21.166;2022-12-18T10:25:26;102477.28;;;1.47;56.99
34124;BME280;13153;52.316;21.166;2022-12-18T10:28:03;102486.75;;;1.46;57.03
34124;BME280;13153;52.316;21.166;2022-12-18T10:30:33;102484.31;;;1.48;56.84
34124;BME280;13153;52.316;21.166;2022-12-18T10:33:03;102489.94;;;1.52;56.99
34124;BME280;13153;52.316;21.166;2022-12-18T10:35:29;102495.13;;;1.52;56.67
34124;BME280;13153;52.316;21.166;2022-12-18T10:43:32;102478.47;;;1.59;56.38
34124;BME280;13153;52.316;21.166;2022-12-18T10:48:40;102477.06;;;1.62;57.02
34124;BME280;13153;52.316;21.166;2022-12-18T10:51:24;102485.78;;;1.63;56.68
34124;BME280;13153;52.316;21.166;2022-12-18T10:54:22;102483.66;;;1.59;56.13
34124;BME280;13153;52.316;21.166;2022-12-18T10:56:48;102491.28;;;1.57;56.70
34124;BME280;13153;52.316;21.166;2022-12-18T10:59:17;102488.06;;;1.60;56.60
34124;BME280;13153;52.316;21.166;2022-12-18T11:01:59;102484.72;;;1.61;56.87
34124;BME280;13153;52.316;21.166;2022-12-18T11:04:31;102485.47;;;1.60;56.31
34124;BME280;13153;52.316;21.166;2022-12-18T11:09:32;102494.47;;;1.63;56.80
34124;BME280;13153;52.316;21.166;2022-12-18T11:12:02;102495.38;;;1.64;56.43
34124;BME280;13153;52.316;21.166;2022-12-18T11:14:54;102500.72;;;1.65;57.03
34124;BME280;13153;52.316;21.166;2022-12-18T11:17:36;102501.47;;;1.73;56.54
34124;BME280;13153;52.316;21.166;2022-12-18T11:20:20;102506.00;;;1.76;56.83
34124;BME280;13153;52.316;21.166;2022-12-18T11:22:59;102503.06;;;1.81;56.59
34124;BME280;13153;52.316;21.166;2022-12-18T11:25:26;102508.25;;;1.81;56.33
34124;BME280;13153;52.316;21.166;2022-12-18T11:27:58;102503.69;;;1.79;56.38
34124;BME280;13153;52.316;21.166;2022-12-18T11:30:28;102505.81;;;1.83;55.99
34124;BME280;13153;52.316;21.166;2022-12-18T11:33:19;102500.31;;;1.80;56.34
34124;BME280;13153;52.316;21.166;2022-12-18T11:36:02;102501.25;;;1.80;56.47
34124;BME280;13153;52.316;21.166;2022-12-18T11:38:37;102498.66;;;1.80;56.33
34124;BME280;13153;52.316;21.166;2022-12-18T11:45:26;102506.75;;;1.75;56.25
34124;BME280;13153;52.316;21.166;2022-12-18T11:48:12;102511.03;;;1.74;56.94
34124;BME280;13153;52.316;21.166;2022-12-18T11:50:54;102516.00;;;1.62;55.57
34124;BME280;13153;52.316;21.166;2022-12-18T11:53:21;102507.47;;;1.55;56.06
34124;BME280;13153;52.316;21.166;2022-12-18T12:01:50;102510.50;;;1.59;56.81
34124;BME280;13153;52.316;21.166;2022-12-18T12:07:47;102518.50;;;1.80;56.93
34124;BME280;13153;52.316;21.166;2022-12-18T12:10:56;102517.78;;;1.72;56.31
34124;BME280;13153;52.316;21.166;2022-12-18T12:13:42;102523.78;;;1.62;55.86
34124;BME280;13153;52.316;21.166;2022-12-18T12:22:13;102537.66;;;1.63;56.18
34124;BME280;13153;52.316;21.166;2022-12-18T12:28:02;102533.41;;;1.55;56.51
34124;BME280;13153;52.316;21.166;2022-12-18T12:31:07;102531.91;;;1.48;56.09
34124;BME280;13153;52.316;21.166;2022-12-18T12:34:20;102528.88;;;1.44;56.92
34124;BME280;13153;52.316;21.166;2022-12-18T12:39:44;102536.97;;;1.38;56.66
34124;BME280;13153;52.316;21.166;2022-12-18T12:45:42;102544.41;;;1.52;57.36
34124;BME280;13153;52.316;21.166;2022-12-18T12:51:16;102554.00;;;1.62;56.80
34124;BME280;13153;52.316;21.166;2022-12-18T12:53:44;102553.09;;;1.61;56.47
34124;BME280;13153;52.316;21.166;2022-12-18T12:56:15;102559.97;;;1.61;56.44
34124;BME280;13153;52.316;21.166;2022-12-18T12:59:25;102554.78;;;1.52;56.41
34124;BME280;13153;52.316;21.166;2022-12-18T13:02:15;102557.41;;;1.44;56.55
34124;BME280;13153;52.316;21.166;2022-12-18T13:05:13;102566.69;;;1.42;56.59
34124;BME280;13153;52.316;21.166;2022-12-18T13:07:54;102568.22;;;1.40;56.79
34124;BME280;13153;52.316;21.166;2022-12-18T13:10:41;102567.94;;;1.37;56.81
34124;BME280;13153;52.316;21.166;2022-12-18T13:13:13;102567.63;;;1.33;57.33
34124;BME280;13153;52.316;21.166;2022-12-18T13:16:06;102571.00;;;1.32;56.97
34124;BME280;13153;52.316;21.166;2022-12-18T13:18:33;102574.03;;;1.28;57.02
34124;BME280;13153;52.316;21.166;2022-12-18T13:31:01;102597.09;;;1.17;57.68
34124;BME280;13153;52.316;21.166;2022-12-18T13:36:14;102596.63;;;1.21;58.02
34124;BME280;13153;52.316;21.166;2022-12-18T13:38:43;102602.72;;;1.21;58.00
34124;BME280;13153;52.316;21.166;2022-12-18T13:41:26;102599.81;;;1.18;57.53
34124;BME280;13153;52.316;21.166;2022-12-18T13:43:55;102594.38;;;1.15;57.37
34124;BME280;13153;52.316;21.166;2022-12-18T13:46:44;102597.22;;;1.18;58.16
34124;BME280;13153;52.316;21.166;2022-12-18T13:51:48;102599.41;;;1.14;57.84
34124;BME280;13153;52.316;21.166;2022-12-18T13:54:39;102601.06;;;1.13;57.73
34124;BME280;13153;52.316;21.166;2022-12-18T13:57:35;102599.56;;;1.15;58.26
34124;BME280;13153;52.316;21.166;2022-12-18T14:00:27;102607.44;;;1.17;58.35
34124;BME280;13153;52.316;21.166;2022-12-18T14:02:55;102620.41;;;1.17;58.01
34124;BME280;13153;52.316;21.166;2022-12-18T14:05:23;102614.31;;;1.16;58.45
34124;BME280;13153;52.316;21.166;2022-12-18T14:07:49;102625.00;;;1.19;58.44
34124;BME280;13153;52.316;21.166;2022-12-18T14:10:16;102623.16;;;1.18;57.95
34124;BME280;13153;52.316;21.166;2022-12-18T14:12:47;102630.03;;;1.18;58.52
34124;BME280;13153;52.316;21.166;2022-12-18T14:15:40;102626.66;;;1.19;58.68
34124;BME280;13153;52.316;21.166;2022-12-18T14:18:27;102622.41;;;1.19;58.53
34124;BME280;13153;52.316;21.166;2022-12-18T14:20:58;102617.97;;;1.18;58.53
34124;BME280;13153;52.316;21.166;2022-12-18T14:23:34;102612.19;;;1.21;58.51
34124;BME280;13153;52.316;21.166;2022-12-18T14:26:18;102620.56;;;1.18;58.59
34124;BME280;13153;52.316;21.166;2022-12-18T14:28:44;102623.00;;;1.17;58.36
34124;BME280;13153;52.316;21.166;2022-12-18T14:31:40;102624.69;;;1.16;58.36
34124;BME280;13153;52.316;21.166;2022-12-18T14:34:15;102619.50;;;1.16;58.62
34124;BME280;13153;52.316;21.166;2022-12-18T14:36:41;102625.91;;;1.20;58.69
34124;BME280;13153;52.316;21.166;2022-12-18T14:39:17;102618.13;;;1.20;58.55
34124;BME280;13153;52.316;21.166;2022-12-18T14:41:43;102622.09;;;1.16;58.04
34124;BME280;13153;52.316;21.166;2022-12-18T14:44:12;102620.56;;;1.18;58.36
34124;BME280;13153;52.316;21.166;2022-12-18T14:46:43;102624.38;;;1.22;58.27
34124;BME280;13153;52.316;21.166;2022-12-18T14:49:34;102623.47;;;1.21;58.01